sensor_id;sensor_type;location;lat;lon;timestamp;P1;durP1;ratioP1;P2;durP2;ratioP2
56720;SDS011;53183;47.412;18.884;2024-03-25T00:00:40;5.00;;;2.45;;
56720;SDS011;53183;47.412;18.884;2024-03-25T00:03:07;5.28;;;2.80;;
56720;SDS011;53183;47.412;18.884;2024-03-25T00:05:33;4.72;;;2.50;;
56720;SDS011;53183;47.412;18.884;2024-03-25T00:07:59;4.68;;;2.80;;
56720;SDS011;53183;47.412;18.884;2024-03-25T00:10:26;7.82;;;3.25;;
56720;SDS011;53183;47.412;18.884;2024-03-25T00:12:53;5.97;;;3.35;;
56720;SDS011;53183;47.412;18.884;2024-03-25T00:15:21;5.18;;;2.62;;
56720;SDS011;53183;47.412;18.884;2024-03-25T00:17:49;7.20;;;3.17;;
56720;SDS011;53183;47.412;18.884;2024-03-25T00:20:16;4.93;;;2.80;;
56720;SDS011;53183;47.412;18.884;2024-03-25T00:22:42;4.82;;;2.62;;
56720;SDS011;53183;47.412;18.884;2024-03-25T00:25:08;6.87;;;2.92;;
56720;SDS011;53183;47.412;18.884;2024-03-25T00:27:35;5.97;;;3.00;;
56720;SDS011;53183;47.412;18.884;2024-03-25T00:30:01;5.62;;;2.75;;
56720;SDS011;53183;47.412;18.884;2024-03-25T00:32:29;9.00;;;2.95;;
56720;SDS011;53183;47.412;18.884;2024-03-25T00:34:55;7.90;;;2.80;;
56720;SDS011;53183;47.412;18.884;2024-03-25T00:37:22;3.45;;;2.20;;
56720;SDS011;53183;47.412;18.884;2024-03-25T00:39:49;6.68;;;2.85;;
56720;SDS011;53183;47.412;18.884;2024-03-25T00:42:15;6.15;;;2.67;;
56720;SDS011;53183;47.412;18.884;2024-03-25T00:44:42;4.07;;;2.45;;
56720;SDS011;53183;47.412;18.884;2024-03-25T00:47:09;7.25;;;2.28;;
56720;SDS011;53183;47.412;18.884;2024-03-25T00:49:35;7.87;;;2.35;;
56720;SDS011;53183;47.412;18.884;2024-03-25T00:52:02;4.87;;;2.08;;
56720;SDS011;53183;47.412;18.884;2024-03-25T00:54:29;4.25;;;1.90;;
56720;SDS011;53183;47.412;18.884;2024-03-25T00:56:55;3.60;;;2.15;;
56720;SDS011;53183;47.412;18.884;2024-03-25T00:59:22;4.70;;;2.35;;
56720;SDS011;53183;47.412;18.884;2024-03-25T01:01:49;5.40;;;2.40;;
56720;SDS011;53183;47.412;18.884;2024-03-25T01:04:16;4.93;;;2.20;;
56720;SDS011;53183;47.412;18.884;2024-03-25T01:06:43;4.60;;;2.50;;
56720;SDS011;53183;47.412;18.884;2024-03-25T01:09:09;3.72;;;2.03;;
56720;SDS011;53183;47.412;18.884;2024-03-25T01:11:36;3.20;;;1.62;;
56720;SDS011;53183;47.412;18.884;2024-03-25T01:14:02;3.30;;;2.20;;
56720;SDS011;53183;47.412;18.884;2024-03-25T01:16:28;4.53;;;1.73;;
56720;SDS011;53183;47.412;18.884;2024-03-25T01:18:55;3.15;;;2.05;;
56720;SDS011;53183;47.412;18.884;2024-03-25T01:21:21;5.57;;;1.87;;
56720;SDS011;53183;47.412;18.884;2024-03-25T01:23:48;5.72;;;2.55;;
56720;SDS011;53183;47.412;18.884;2024-03-25T01:26:15;4.95;;;1.50;;
56720;SDS011;53183;47.412;18.884;2024-03-25T01:28:41;2.17;;;1.65;;
56720;SDS011;53183;47.412;18.884;2024-03-25T01:31:07;9.63;;;2.22;;
56720;SDS011;53183;47.412;18.884;2024-03-25T01:33:34;2.42;;;1.42;;
56720;SDS011;53183;47.412;18.884;2024-03-25T01:36:01;2.92;;;1.73;;
56720;SDS011;53183;47.412;18.884;2024-03-25T01:38:34;2.17;;;1.65;;
56720;SDS011;53183;47.412;18.884;2024-03-25T01:41:07;4.95;;;2.10;;
56720;SDS011;53183;47.412;18.884;2024-03-25T01:43:37;2.75;;;1.45;;
56720;SDS011;53183;47.412;18.884;2024-03-25T01:46:04;5.07;;;1.87;;
56720;SDS011;53183;47.412;18.884;2024-03-25T01:48:31;2.83;;;1.90;;
56720;SDS011;53183;47.412;18.884;2024-03-25T01:50:58;2.90;;;1.40;;
56720;SDS011;53183;47.412;18.884;2024-03-25T01:53:25;2.37;;;1.55;;
56720;SDS011;53183;47.412;18.884;2024-03-25T01:55:53;3.25;;;1.73;;
56720;SDS011;53183;47.412;18.884;2024-03-25T01:58:22;3.45;;;1.80;;
56720;SDS011;53183;47.412;18.884;2024-03-25T02:00:50;4.97;;;2.30;;
56720;SDS011;53183;47.412;18.884;2024-03-25T02:03:18;6.40;;;1.83;;
56720;SDS011;53183;47.412;18.884;2024-03-25T02:05:44;3.08;;;1.67;;
56720;SDS011;53183;47.412;18.884;2024-03-25T02:08:10;3.40;;;1.83;;
56720;SDS011;53183;47.412;18.884;2024-03-25T02:10:37;7.10;;;1.40;;
56720;SDS011;53183;47.412;18.884;2024-03-25T02:13:03;2.87;;;1.40;;
56720;SDS011;53183;47.412;18.884;2024-03-25T02:15:30;3.10;;;1.52;;
56720;SDS011;53183;47.412;18.884;2024-03-25T02:17:57;3.30;;;1.50;;
56720;SDS011;53183;47.412;18.884;2024-03-25T02:20:23;2.17;;;1.23;;
56720;SDS011;53183;47.412;18.884;2024-03-25T02:22:49;2.92;;;1.20;;
56720;SDS011;53183;47.412;18.884;2024-03-25T02:25:17;7.65;;;1.52;;
56720;SDS011;53183;47.412;18.884;2024-03-25T02:27:43;1.35;;;0.93;;
56720;SDS011;53183;47.412;18.884;2024-03-25T02:30:10;3.78;;;1.42;;
56720;SDS011;53183;47.412;18.884;2024-03-25T02:32:40;4.12;;;1.20;;
56720;SDS011;53183;47.412;18.884;2024-03-25T02:35:07;3.33;;;1.17;;
56720;SDS011;53183;47.412;18.884;2024-03-25T02:37:36;3.50;;;1.33;;
56720;SDS011;53183;47.412;18.884;2024-03-25T02:40:05;4.00;;;1.45;;
56720;SDS011;53183;47.412;18.884;2024-03-25T02:42:35;2.30;;;1.20;;
56720;SDS011;53183;47.412;18.884;2024-03-25T02:45:02;3.22;;;1.15;;
56720;SDS011;53183;47.412;18.884;2024-03-25T02:47:31;6.65;;;1.70;;
56720;SDS011;53183;47.412;18.884;2024-03-25T02:49:57;2.60;;;1.30;;
56720;SDS011;53183;47.412;18.884;2024-03-25T02:52:23;2.62;;;1.42;;
56720;SDS011;53183;47.412;18.884;2024-03-25T02:54:49;2.67;;;1.30;;
56720;SDS011;53183;47.412;18.884;2024-03-25T02:57:17;2.17;;;1.23;;
56720;SDS011;53183;47.412;18.884;2024-03-25T02:59:44;3.20;;;1.40;;
56720;SDS011;53183;47.412;18.884;2024-03-25T03:02:10;2.22;;;1.37;;
56720;SDS011;53183;47.412;18.884;2024-03-25T03:04:36;2.47;;;1.15;;
56720;SDS011;53183;47.412;18.884;2024-03-25T03:07:03;2.30;;;1.20;;
56720;SDS011;53183;47.412;18.884;2024-03-25T03:09:30;3.92;;;1.30;;
56720;SDS011;53183;47.412;18.884;2024-03-25T03:11:56;3.53;;;1.23;;
56720;SDS011;53183;47.412;18.884;2024-03-25T03:14:22;2.62;;;1.33;;
56720;SDS011;53183;47.412;18.884;2024-03-25T03:16:48;3.28;;;1.40;;
56720;SDS011;53183;47.412;18.884;2024-03-25T03:19:15;1.80;;;1.20;;
56720;SDS011;53183;47.412;18.884;2024-03-25T03:21:41;2.03;;;1.05;;
56720;SDS011;53183;47.412;18.884;2024-03-25T03:24:07;3.90;;;1.27;;
56720;SDS011;53183;47.412;18.884;2024-03-25T03:26:34;3.40;;;0.85;;
56720;SDS011;53183;47.412;18.884;2024-03-25T03:29:00;2.35;;;1.25;;
56720;SDS011;53183;47.412;18.884;2024-03-25T03:31:27;3.70;;;1.45;;
56720;SDS011;53183;47.412;18.884;2024-03-25T03:33:53;2.28;;;1.00;;
56720;SDS011;53183;47.412;18.884;2024-03-25T03:36:21;1.25;;;0.90;;
56720;SDS011;53183;47.412;18.884;2024-03-25T03:38:51;2.37;;;1.00;;
56720;SDS011;53183;47.412;18.884;2024-03-25T03:41:17;2.10;;;0.98;;
56720;SDS011;53183;47.412;18.884;2024-03-25T03:43:44;1.70;;;0.88;;
56720;SDS011;53183;47.412;18.884;2024-03-25T03:46:11;2.50;;;0.90;;
56720;SDS011;53183;47.412;18.884;2024-03-25T03:48:37;2.55;;;0.95;;
56720;SDS011;53183;47.412;18.884;2024-03-25T03:51:04;2.03;;;0.95;;
56720;SDS011;53183;47.412;18.884;2024-03-25T03:53:32;2.33;;;1.20;;
56720;SDS011;53183;47.412;18.884;2024-03-25T03:55:59;1.30;;;0.73;;
56720;SDS011;53183;47.412;18.884;2024-03-25T03:58:30;4.40;;;1.60;;
56720;SDS011;53183;47.412;18.884;2024-03-25T04:00:56;3.90;;;1.35;;
56720;SDS011;53183;47.412;18.884;2024-03-25T04:03:22;3.33;;;1.00;;
56720;SDS011;53183;47.412;18.884;2024-03-25T04:05:48;5.18;;;1.52;;
56720;SDS011;53183;47.412;18.884;2024-03-25T04:08:14;4.65;;;1.25;;
56720;SDS011;53183;47.412;18.884;2024-03-25T04:10:42;2.65;;;0.73;;
56720;SDS011;53183;47.412;18.884;2024-03-25T04:13:28;3.97;;;1.00;;
56720;SDS011;53183;47.412;18.884;2024-03-25T04:15:59;1.20;;;0.65;;
56720;SDS011;53183;47.412;18.884;2024-03-25T04:18:27;5.00;;;1.00;;
56720;SDS011;53183;47.412;18.884;2024-03-25T04:20:54;2.05;;;1.17;;
56720;SDS011;53183;47.412;18.884;2024-03-25T04:23:20;3.85;;;0.82;;
56720;SDS011;53183;47.412;18.884;2024-03-25T04:25:46;1.83;;;0.93;;
56720;SDS011;53183;47.412;18.884;2024-03-25T04:28:12;4.55;;;1.17;;
56720;SDS011;53183;47.412;18.884;2024-03-25T04:30:38;4.30;;;0.98;;
56720;SDS011;53183;47.412;18.884;2024-03-25T04:33:04;1.42;;;0.70;;
56720;SDS011;53183;47.412;18.884;2024-03-25T04:35:30;2.97;;;0.80;;
56720;SDS011;53183;47.412;18.884;2024-03-25T04:37:56;4.28;;;1.37;;
56720;SDS011;53183;47.412;18.884;2024-03-25T04:40:23;1.15;;;0.70;;
56720;SDS011;53183;47.412;18.884;2024-03-25T04:42:49;1.80;;;0.82;;
56720;SDS011;53183;47.412;18.884;2024-03-25T04:45:16;2.10;;;1.10;;
56720;SDS011;53183;47.412;18.884;2024-03-25T04:47:42;5.47;;;1.62;;
56720;SDS011;53183;47.412;18.884;2024-03-25T04:50:09;3.20;;;1.30;;
56720;SDS011;53183;47.412;18.884;2024-03-25T04:52:36;3.22;;;0.82;;
56720;SDS011;53183;47.412;18.884;2024-03-25T04:55:03;5.85;;;1.23;;
56720;SDS011;53183;47.412;18.884;2024-03-25T04:57:30;1.98;;;1.08;;
56720;SDS011;53183;47.412;18.884;2024-03-25T04:59:56;1.08;;;0.73;;
56720;SDS011;53183;47.412;18.884;2024-03-25T05:02:24;2.03;;;1.02;;
56720;SDS011;53183;47.412;18.884;2024-03-25T05:04:50;2.35;;;0.90;;
56720;SDS011;53183;47.412;18.884;2024-03-25T05:07:18;2.00;;;0.98;;
56720;SDS011;53183;47.412;18.884;2024-03-25T05:09:45;5.30;;;1.87;;
56720;SDS011;53183;47.412;18.884;2024-03-25T05:12:11;2.55;;;1.10;;
56720;SDS011;53183;47.412;18.884;2024-03-25T05:14:38;4.07;;;2.17;;
56720;SDS011;53183;47.412;18.884;2024-03-25T05:17:05;1.37;;;0.75;;
56720;SDS011;53183;47.412;18.884;2024-03-25T05:19:34;2.97;;;0.85;;
56720;SDS011;53183;47.412;18.884;2024-03-25T05:22:00;2.15;;;0.90;;
56720;SDS011;53183;47.412;18.884;2024-03-25T05:24:27;3.65;;;0.90;;
56720;SDS011;53183;47.412;18.884;2024-03-25T05:26:54;1.92;;;0.70;;
56720;SDS011;53183;47.412;18.884;2024-03-25T05:29:20;0.85;;;0.55;;
56720;SDS011;53183;47.412;18.884;2024-03-25T05:31:59;2.42;;;1.50;;
56720;SDS011;53183;47.412;18.884;2024-03-25T05:34:27;2.33;;;0.95;;
56720;SDS011;53183;47.412;18.884;2024-03-25T05:36:54;3.42;;;1.27;;
56720;SDS011;53183;47.412;18.884;2024-03-25T05:39:20;3.25;;;1.10;;
56720;SDS011;53183;47.412;18.884;2024-03-25T05:41:47;1.48;;;0.85;;
56720;SDS011;53183;47.412;18.884;2024-03-25T05:44:14;1.48;;;1.10;;
56720;SDS011;53183;47.412;18.884;2024-03-25T05:46:40;1.08;;;0.80;;
56720;SDS011;53183;47.412;18.884;2024-03-25T05:49:07;3.78;;;1.58;;
56720;SDS011;53183;47.412;18.884;2024-03-25T05:51:33;1.65;;;0.90;;
56720;SDS011;53183;47.412;18.884;2024-03-25T05:53:59;1.85;;;0.80;;
56720;SDS011;53183;47.412;18.884;2024-03-25T05:56:27;7.10;;;1.12;;
56720;SDS011;53183;47.412;18.884;2024-03-25T05:58:57;6.60;;;0.80;;
56720;SDS011;53183;47.412;18.884;2024-03-25T06:01:23;1.98;;;0.82;;
56720;SDS011;53183;47.412;18.884;2024-03-25T06:03:50;5.93;;;0.80;;
56720;SDS011;53183;47.412;18.884;2024-03-25T06:06:16;2.03;;;1.23;;
56720;SDS011;53183;47.412;18.884;2024-03-25T06:08:43;2.45;;;1.02;;
56720;SDS011;53183;47.412;18.884;2024-03-25T06:11:10;1.60;;;0.85;;
56720;SDS011;53183;47.412;18.884;2024-03-25T06:13:38;3.22;;;0.85;;
56720;SDS011;53183;47.412;18.884;2024-03-25T06:16:04;2.25;;;1.00;;
56720;SDS011;53183;47.412;18.884;2024-03-25T06:18:31;2.22;;;1.45;;
56720;SDS011;53183;47.412;18.884;2024-03-25T06:20:57;2.15;;;1.00;;
56720;SDS011;53183;47.412;18.884;2024-03-25T06:23:24;1.98;;;1.00;;
56720;SDS011;53183;47.412;18.884;2024-03-25T06:25:52;3.45;;;1.00;;
56720;SDS011;53183;47.412;18.884;2024-03-25T06:28:21;5.45;;;1.05;;
56720;SDS011;53183;47.412;18.884;2024-03-25T06:30:48;3.00;;;1.12;;
56720;SDS011;53183;47.412;18.884;2024-03-25T06:33:34;1.35;;;0.75;;
56720;SDS011;53183;47.412;18.884;2024-03-25T06:36:20;2.75;;;0.90;;
56720;SDS011;53183;47.412;18.884;2024-03-25T06:38:46;2.30;;;0.70;;
56720;SDS011;53183;47.412;18.884;2024-03-25T06:41:13;1.85;;;1.00;;
56720;SDS011;53183;47.412;18.884;2024-03-25T06:43:39;1.25;;;0.68;;
56720;SDS011;53183;47.412;18.884;2024-03-25T06:46:05;2.17;;;1.15;;
56720;SDS011;53183;47.412;18.884;2024-03-25T06:48:33;2.12;;;1.15;;
56720;SDS011;53183;47.412;18.884;2024-03-25T06:51:04;2.12;;;1.25;;
56720;SDS011;53183;47.412;18.884;2024-03-25T06:53:31;1.73;;;1.12;;
56720;SDS011;53183;47.412;18.884;2024-03-25T06:55:58;6.20;;;1.02;;
56720;SDS011;53183;47.412;18.884;2024-03-25T06:58:27;1.67;;;1.10;;
56720;SDS011;53183;47.412;18.884;2024-03-25T07:00:55;2.75;;;1.17;;
56720;SDS011;53183;47.412;18.884;2024-03-25T07:03:22;5.95;;;1.65;;
56720;SDS011;53183;47.412;18.884;2024-03-25T07:05:50;1.92;;;1.00;;
56720;SDS011;53183;47.412;18.884;2024-03-25T07:08:24;1.90;;;1.10;;
56720;SDS011;53183;47.412;18.884;2024-03-25T07:10:51;3.28;;;1.20;;
56720;SDS011;53183;47.412;18.884;2024-03-25T07:13:20;3.78;;;1.37;;
56720;SDS011;53183;47.412;18.884;2024-03-25T07:15:49;1.65;;;1.33;;
56720;SDS011;53183;47.412;18.884;2024-03-25T07:18:15;1.95;;;1.10;;
56720;SDS011;53183;47.412;18.884;2024-03-25T07:20:42;2.12;;;1.15;;
56720;SDS011;53183;47.412;18.884;2024-03-25T07:23:09;1.45;;;1.00;;
56720;SDS011;53183;47.412;18.884;2024-03-25T07:25:36;2.72;;;1.40;;
56720;SDS011;53183;47.412;18.884;2024-03-25T07:28:03;1.20;;;0.95;;
56720;SDS011;53183;47.412;18.884;2024-03-25T07:30:29;3.05;;;0.90;;
56720;SDS011;53183;47.412;18.884;2024-03-25T07:32:56;4.40;;;2.55;;
56720;SDS011;53183;47.412;18.884;2024-03-25T07:35:23;3.05;;;1.05;;
56720;SDS011;53183;47.412;18.884;2024-03-25T07:37:50;1.50;;;1.10;;
56720;SDS011;53183;47.412;18.884;2024-03-25T07:40:18;3.55;;;1.10;;
56720;SDS011;53183;47.412;18.884;2024-03-25T07:42:45;1.25;;;0.60;;
56720;SDS011;53183;47.412;18.884;2024-03-25T07:45:12;3.00;;;1.10;;
56720;SDS011;53183;47.412;18.884;2024-03-25T07:47:39;2.62;;;1.00;;
56720;SDS011;53183;47.412;18.884;2024-03-25T07:50:06;5.62;;;1.30;;
56720;SDS011;53183;47.412;18.884;2024-03-25T07:52:33;1.10;;;0.90;;
56720;SDS011;53183;47.412;18.884;2024-03-25T07:55:02;2.25;;;1.30;;
56720;SDS011;53183;47.412;18.884;2024-03-25T07:57:28;5.12;;;1.55;;
56720;SDS011;53183;47.412;18.884;2024-03-25T07:59:57;1.92;;;1.00;;
56720;SDS011;53183;47.412;18.884;2024-03-25T08:02:23;4.35;;;1.02;;
56720;SDS011;53183;47.412;18.884;2024-03-25T08:04:51;1.73;;;1.08;;
56720;SDS011;53183;47.412;18.884;2024-03-25T08:07:17;1.98;;;1.20;;
56720;SDS011;53183;47.412;18.884;2024-03-25T08:09:53;2.72;;;1.40;;
56720;SDS011;53183;47.412;18.884;2024-03-25T08:12:19;3.58;;;1.30;;
56720;SDS011;53183;47.412;18.884;2024-03-25T08:14:47;3.12;;;1.15;;
56720;SDS011;53183;47.412;18.884;2024-03-25T08:17:13;3.17;;;1.00;;
56720;SDS011;53183;47.412;18.884;2024-03-25T08:19:39;3.15;;;1.10;;
56720;SDS011;53183;47.412;18.884;2024-03-25T08:22:05;3.33;;;1.48;;
56720;SDS011;53183;47.412;18.884;2024-03-25T08:24:31;2.45;;;1.23;;
56720;SDS011;53183;47.412;18.884;2024-03-25T08:26:57;2.20;;;1.12;;
56720;SDS011;53183;47.412;18.884;2024-03-25T08:29:25;2.58;;;1.23;;
56720;SDS011;53183;47.412;18.884;2024-03-25T08:31:51;1.83;;;1.10;;
56720;SDS011;53183;47.412;18.884;2024-03-25T08:34:17;1.33;;;0.98;;
56720;SDS011;53183;47.412;18.884;2024-03-25T08:36:44;1.48;;;0.90;;
56720;SDS011;53183;47.412;18.884;2024-03-25T08:39:10;1.10;;;0.90;;
56720;SDS011;53183;47.412;18.884;2024-03-25T08:41:37;1.73;;;1.20;;
56720;SDS011;53183;47.412;18.884;2024-03-25T08:44:05;4.20;;;1.30;;
56720;SDS011;53183;47.412;18.884;2024-03-25T08:46:31;1.62;;;1.08;;
56720;SDS011;53183;47.412;18.884;2024-03-25T08:48:59;1.20;;;1.08;;
56720;SDS011;53183;47.412;18.884;2024-03-25T08:51:25;1.40;;;1.00;;
56720;SDS011;53183;47.412;18.884;2024-03-25T08:53:51;2.03;;;1.30;;
56720;SDS011;53183;47.412;18.884;2024-03-25T08:56:18;2.85;;;1.08;;
56720;SDS011;53183;47.412;18.884;2024-03-25T08:58:44;2.00;;;1.02;;
56720;SDS011;53183;47.412;18.884;2024-03-25T09:01:11;2.80;;;1.70;;
56720;SDS011;53183;47.412;18.884;2024-03-25T09:03:40;2.22;;;1.25;;
56720;SDS011;53183;47.412;18.884;2024-03-25T09:06:06;4.75;;;1.45;;
56720;SDS011;53183;47.412;18.884;2024-03-25T09:08:33;4.22;;;1.67;;
56720;SDS011;53183;47.412;18.884;2024-03-25T09:11:19;1.62;;;1.25;;
56720;SDS011;53183;47.412;18.884;2024-03-25T09:13:46;2.37;;;1.27;;
56720;SDS011;53183;47.412;18.884;2024-03-25T09:16:14;1.62;;;1.10;;
56720;SDS011;53183;47.412;18.884;2024-03-25T09:18:53;1.73;;;1.25;;
56720;SDS011;53183;47.412;18.884;2024-03-25T09:21:21;2.03;;;1.23;;
56720;SDS011;53183;47.412;18.884;2024-03-25T09:23:50;1.95;;;1.00;;
56720;SDS011;53183;47.412;18.884;2024-03-25T09:26:17;3.95;;;1.50;;
56720;SDS011;53183;47.412;18.884;2024-03-25T09:28:44;3.53;;;1.33;;
56720;SDS011;53183;47.412;18.884;2024-03-25T09:31:11;3.58;;;1.30;;
56720;SDS011;53183;47.412;18.884;2024-03-25T09:33:37;5.03;;;1.83;;
56720;SDS011;53183;47.412;18.884;2024-03-25T09:36:03;2.12;;;0.98;;
56720;SDS011;53183;47.412;18.884;2024-03-25T09:38:30;1.60;;;1.05;;
56720;SDS011;53183;47.412;18.884;2024-03-25T09:40:56;3.25;;;1.48;;
56720;SDS011;53183;47.412;18.884;2024-03-25T09:43:32;2.55;;;1.42;;
56720;SDS011;53183;47.412;18.884;2024-03-25T09:46:00;2.28;;;1.27;;
56720;SDS011;53183;47.412;18.884;2024-03-25T09:48:27;2.65;;;1.60;;
56720;SDS011;53183;47.412;18.884;2024-03-25T09:50:55;1.70;;;1.00;;
56720;SDS011;53183;47.412;18.884;2024-03-25T09:53:23;10.18;;;1.37;;
56720;SDS011;53183;47.412;18.884;2024-03-25T09:55:50;2.92;;;1.05;;
56720;SDS011;53183;47.412;18.884;2024-03-25T09:58:18;1.30;;;0.93;;
56720;SDS011;53183;47.412;18.884;2024-03-25T10:00:46;3.33;;;1.17;;
56720;SDS011;53183;47.412;18.884;2024-03-25T10:03:13;2.20;;;1.00;;
56720;SDS011;53183;47.412;18.884;2024-03-25T10:05:42;3.17;;;1.48;;
56720;SDS011;53183;47.412;18.884;2024-03-25T10:08:09;2.60;;;1.05;;
56720;SDS011;53183;47.412;18.884;2024-03-25T10:10:38;1.80;;;1.20;;
56720;SDS011;53183;47.412;18.884;2024-03-25T10:13:04;2.28;;;1.73;;
56720;SDS011;53183;47.412;18.884;2024-03-25T10:15:32;3.17;;;1.30;;
56720;SDS011;53183;47.412;18.884;2024-03-25T10:18:00;5.47;;;1.35;;
56720;SDS011;53183;47.412;18.884;2024-03-25T10:20:27;1.42;;;1.20;;
56720;SDS011;53183;47.412;18.884;2024-03-25T10:22:54;1.95;;;1.30;;
56720;SDS011;53183;47.412;18.884;2024-03-25T10:25:30;1.52;;;1.17;;
56720;SDS011;53183;47.412;18.884;2024-03-25T10:27:57;5.70;;;1.45;;
56720;SDS011;53183;47.412;18.884;2024-03-25T10:30:27;5.55;;;1.40;;
56720;SDS011;53183;47.412;18.884;2024-03-25T10:33:03;2.20;;;1.30;;
56720;SDS011;53183;47.412;18.884;2024-03-25T10:35:31;6.30;;;1.83;;
56720;SDS011;53183;47.412;18.884;2024-03-25T10:37:59;3.95;;;1.17;;
56720;SDS011;53183;47.412;18.884;2024-03-25T10:40:33;4.47;;;1.30;;
56720;SDS011;53183;47.412;18.884;2024-03-25T10:43:06;3.90;;;1.73;;
56720;SDS011;53183;47.412;18.884;2024-03-25T10:45:43;1.75;;;1.23;;
56720;SDS011;53183;47.412;18.884;2024-03-25T10:48:15;5.47;;;1.25;;
56720;SDS011;53183;47.412;18.884;2024-03-25T10:50:46;4.05;;;1.00;;
56720;SDS011;53183;47.412;18.884;2024-03-25T10:53:17;4.37;;;1.27;;
56720;SDS011;53183;47.412;18.884;2024-03-25T10:55:44;2.58;;;1.33;;
56720;SDS011;53183;47.412;18.884;2024-03-25T10:58:17;2.15;;;1.45;;
56720;SDS011;53183;47.412;18.884;2024-03-25T11:00:46;2.70;;;1.27;;
56720;SDS011;53183;47.412;18.884;2024-03-25T11:03:17;2.72;;;1.30;;
56720;SDS011;53183;47.412;18.884;2024-03-25T11:05:44;4.30;;;1.42;;
56720;SDS011;53183;47.412;18.884;2024-03-25T11:08:14;1.87;;;1.10;;
56720;SDS011;53183;47.412;18.884;2024-03-25T11:10:45;3.03;;;1.33;;
56720;SDS011;53183;47.412;18.884;2024-03-25T11:13:13;6.72;;;1.00;;
56720;SDS011;53183;47.412;18.884;2024-03-25T11:15:40;3.92;;;1.30;;
56720;SDS011;53183;47.412;18.884;2024-03-25T11:18:13;3.17;;;1.30;;
56720;SDS011;53183;47.412;18.884;2024-03-25T11:20:42;7.32;;;1.20;;
56720;SDS011;53183;47.412;18.884;2024-03-25T11:23:08;3.72;;;1.17;;
56720;SDS011;53183;47.412;18.884;2024-03-25T11:25:36;3.85;;;1.65;;
56720;SDS011;53183;47.412;18.884;2024-03-25T11:28:03;11.57;;;1.15;;
56720;SDS011;53183;47.412;18.884;2024-03-25T11:30:39;4.20;;;0.80;;
56720;SDS011;53183;47.412;18.884;2024-03-25T11:33:09;2.17;;;1.23;;
56720;SDS011;53183;47.412;18.884;2024-03-25T11:35:38;1.35;;;0.80;;
56720;SDS011;53183;47.412;18.884;2024-03-25T11:38:04;2.92;;;1.10;;
56720;SDS011;53183;47.412;18.884;2024-03-25T11:40:32;1.42;;;1.10;;
56720;SDS011;53183;47.412;18.884;2024-03-25T11:42:58;2.15;;;1.42;;
56720;SDS011;53183;47.412;18.884;2024-03-25T11:45:24;2.80;;;1.05;;
56720;SDS011;53183;47.412;18.884;2024-03-25T11:47:51;2.35;;;1.25;;
56720;SDS011;53183;47.412;18.884;2024-03-25T11:50:17;2.58;;;1.00;;
56720;SDS011;53183;47.412;18.884;2024-03-25T11:52:44;2.80;;;1.30;;
56720;SDS011;53183;47.412;18.884;2024-03-25T11:55:16;3.28;;;1.55;;
56720;SDS011;53183;47.412;18.884;2024-03-25T11:57:44;2.33;;;1.37;;
56720;SDS011;53183;47.412;18.884;2024-03-25T12:00:10;3.05;;;1.45;;
56720;SDS011;53183;47.412;18.884;2024-03-25T12:02:44;2.75;;;1.20;;
56720;SDS011;53183;47.412;18.884;2024-03-25T12:05:13;2.22;;;1.42;;
56720;SDS011;53183;47.412;18.884;2024-03-25T12:07:39;3.03;;;1.40;;
56720;SDS011;53183;47.412;18.884;2024-03-25T12:10:06;3.90;;;1.50;;
56720;SDS011;53183;47.412;18.884;2024-03-25T12:12:55;11.35;;;1.67;;
56720;SDS011;53183;47.412;18.884;2024-03-25T12:15:21;2.72;;;1.25;;
56720;SDS011;53183;47.412;18.884;2024-03-25T12:17:48;6.75;;;1.05;;
56720;SDS011;53183;47.412;18.884;2024-03-25T12:20:17;3.33;;;0.80;;
56720;SDS011;53183;47.412;18.884;2024-03-25T12:22:45;2.47;;;0.82;;
56720;SDS011;53183;47.412;18.884;2024-03-25T12:25:11;1.75;;;0.93;;
56720;SDS011;53183;47.412;18.884;2024-03-25T12:27:38;1.12;;;0.73;;
56720;SDS011;53183;47.412;18.884;2024-03-25T12:30:08;2.80;;;0.95;;
56720;SDS011;53183;47.412;18.884;2024-03-25T12:32:36;1.90;;;0.80;;
56720;SDS011;53183;47.412;18.884;2024-03-25T12:35:15;4.75;;;0.90;;
56720;SDS011;53183;47.412;18.884;2024-03-25T12:37:46;1.45;;;0.77;;
56720;SDS011;53183;47.412;18.884;2024-03-25T12:40:25;1.67;;;1.25;;
56720;SDS011;53183;47.412;18.884;2024-03-25T12:42:52;4.43;;;1.12;;
56720;SDS011;53183;47.412;18.884;2024-03-25T12:45:20;1.15;;;0.70;;
56720;SDS011;53183;47.412;18.884;2024-03-25T12:47:46;0.68;;;0.60;;
56720;SDS011;53183;47.412;18.884;2024-03-25T12:50:13;3.22;;;0.82;;
56720;SDS011;53183;47.412;18.884;2024-03-25T12:52:41;2.35;;;0.85;;
56720;SDS011;53183;47.412;18.884;2024-03-25T12:55:08;2.40;;;0.77;;
56720;SDS011;53183;47.412;18.884;2024-03-25T12:57:35;0.93;;;0.60;;
56720;SDS011;53183;47.412;18.884;2024-03-25T13:00:02;1.37;;;0.80;;
56720;SDS011;53183;47.412;18.884;2024-03-25T13:02:32;2.72;;;0.82;;
56720;SDS011;53183;47.412;18.884;2024-03-25T13:04:59;0.98;;;0.70;;
56720;SDS011;53183;47.412;18.884;2024-03-25T13:07:25;3.05;;;0.52;;
56720;SDS011;53183;47.412;18.884;2024-03-25T13:09:51;4.28;;;1.30;;
56720;SDS011;53183;47.412;18.884;2024-03-25T13:12:18;3.30;;;1.10;;
56720;SDS011;53183;47.412;18.884;2024-03-25T13:14:44;3.60;;;1.20;;
56720;SDS011;53183;47.412;18.884;2024-03-25T13:17:10;5.35;;;1.60;;
56720;SDS011;53183;47.412;18.884;2024-03-25T13:19:38;3.15;;;1.20;;
56720;SDS011;53183;47.412;18.884;2024-03-25T13:22:05;1.85;;;1.12;;
56720;SDS011;53183;47.412;18.884;2024-03-25T13:24:32;2.05;;;1.25;;
56720;SDS011;53183;47.412;18.884;2024-03-25T13:26:58;1.60;;;1.17;;
56720;SDS011;53183;47.412;18.884;2024-03-25T13:29:25;6.37;;;2.20;;
56720;SDS011;53183;47.412;18.884;2024-03-25T13:31:51;1.80;;;1.17;;
56720;SDS011;53183;47.412;18.884;2024-03-25T13:34:18;2.97;;;1.30;;
56720;SDS011;53183;47.412;18.884;2024-03-25T13:36:45;1.48;;;0.95;;
56720;SDS011;53183;47.412;18.884;2024-03-25T13:39:11;2.92;;;1.50;;
56720;SDS011;53183;47.412;18.884;2024-03-25T13:41:38;7.10;;;1.42;;
56720;SDS011;53183;47.412;18.884;2024-03-25T13:44:04;2.78;;;1.62;;
56720;SDS011;53183;47.412;18.884;2024-03-25T13:46:31;7.07;;;1.20;;
56720;SDS011;53183;47.412;18.884;2024-03-25T13:48:57;1.45;;;1.00;;
56720;SDS011;53183;47.412;18.884;2024-03-25T13:51:24;2.47;;;1.37;;
56720;SDS011;53183;47.412;18.884;2024-03-25T13:53:50;4.10;;;1.60;;
56720;SDS011;53183;47.412;18.884;2024-03-25T13:56:16;2.00;;;1.15;;
56720;SDS011;53183;47.412;18.884;2024-03-25T13:58:59;2.20;;;1.30;;
56720;SDS011;53183;47.412;18.884;2024-03-25T14:01:26;2.08;;;1.00;;
56720;SDS011;53183;47.412;18.884;2024-03-25T14:03:55;2.22;;;1.30;;
56720;SDS011;53183;47.412;18.884;2024-03-25T14:06:21;1.98;;;1.27;;
56720;SDS011;53183;47.412;18.884;2024-03-25T14:08:49;2.05;;;0.88;;
56720;SDS011;53183;47.412;18.884;2024-03-25T14:11:15;3.10;;;0.95;;
56720;SDS011;53183;47.412;18.884;2024-03-25T14:13:48;2.40;;;1.40;;
56720;SDS011;53183;47.412;18.884;2024-03-25T14:16:15;2.97;;;1.33;;
56720;SDS011;53183;47.412;18.884;2024-03-25T14:18:41;1.62;;;1.12;;
56720;SDS011;53183;47.412;18.884;2024-03-25T14:21:07;1.30;;;0.90;;
56720;SDS011;53183;47.412;18.884;2024-03-25T14:23:36;1.42;;;1.05;;
56720;SDS011;53183;47.412;18.884;2024-03-25T14:26:05;5.53;;;1.30;;
56720;SDS011;53183;47.412;18.884;2024-03-25T14:28:31;4.15;;;0.80;;
56720;SDS011;53183;47.412;18.884;2024-03-25T14:30:58;1.33;;;0.73;;
56720;SDS011;53183;47.412;18.884;2024-03-25T14:33:24;2.40;;;1.10;;
56720;SDS011;53183;47.412;18.884;2024-03-25T14:35:50;1.67;;;0.90;;